createdAt,value
2018-03-29T00:02:01.479Z,3.10
2018-03-29T00:04:29.002Z,3.10
2018-03-29T00:06:56.536Z,3.10
2018-03-29T00:09:24.048Z,3.10
2018-03-29T00:11:51.607Z,3.10
2018-03-29T00:14:19.135Z,3.10
2018-03-29T00:16:46.675Z,3.10
2018-03-29T00:19:14.992Z,3.20
2018-03-29T00:21:42.522Z,3.10
2018-03-29T00:24:10.052Z,3.10
2018-03-29T00:26:37.572Z,3.20
2018-03-29T00:29:05.108Z,3.20
2018-03-29T00:31:32.622Z,3.30
2018-03-29T00:34:00.177Z,3.20
2018-03-29T00:36:27.711Z,3.30
2018-03-29T00:38:55.292Z,3.30
2018-03-29T00:41:22.808Z,3.30
2018-03-29T00:43:50.357Z,3.30
2018-03-29T00:46:17.878Z,3.30
2018-03-29T00:48:45.389Z,3.30
2018-03-29T00:51:12.931Z,3.30
2018-03-29T00:53:45.234Z,3.30
2018-03-29T00:56:12.785Z,3.30
2018-03-29T00:58:40.305Z,3.40
2018-03-29T01:01:07.838Z,3.40
2018-03-29T01:03:35.366Z,3.40
2018-03-29T01:06:02.919Z,3.50
2018-03-29T01:08:33.517Z,3.50
2018-03-29T01:11:01.095Z,3.50
2018-03-29T01:13:28.585Z,3.50
2018-03-29T01:15:56.130Z,3.60
2018-03-29T01:18:23.704Z,3.60
2018-03-29T01:20:51.217Z,3.60
2018-03-29T01:23:18.764Z,3.50
2018-03-29T01:25:46.298Z,3.50
2018-03-29T01:28:14.609Z,3.50
2018-03-29T01:30:42.129Z,3.50
2018-03-29T01:33:09.677Z,3.60
2018-03-29T01:35:37.204Z,3.60
2018-03-29T01:38:04.962Z,3.60
2018-03-29T01:40:32.481Z,3.60
2018-03-29T01:43:00.015Z,3.70
2018-03-29T01:45:28.312Z,3.70
2018-03-29T01:47:55.858Z,3.70
2018-03-29T01:50:23.391Z,3.80
2018-03-29T01:52:50.949Z,3.90
2018-03-29T01:55:18.470Z,3.90
2018-03-29T01:57:46.002Z,4.00
2018-03-29T02:00:13.545Z,4.00
2018-03-29T02:02:41.864Z,4.00
2018-03-29T02:05:09.403Z,4.10
2018-03-29T02:07:36.933Z,4.10
2018-03-29T02:10:04.477Z,4.20
2018-03-29T02:12:32.780Z,4.30
2018-03-29T02:15:00.326Z,4.20
2018-03-29T02:17:28.613Z,4.40
2018-03-29T02:19:56.149Z,4.40
2018-03-29T02:22:24.446Z,4.50
2018-03-29T02:24:51.988Z,4.50
2018-03-29T02:27:20.283Z,4.60
2018-03-29T02:29:47.835Z,4.50
2018-03-29T02:32:15.366Z,4.70
2018-03-29T02:34:43.668Z,4.70
2018-03-29T02:37:11.217Z,4.70
2018-03-29T02:39:38.801Z,4.80
2018-03-29T02:42:06.345Z,4.90
2018-03-29T02:44:33.860Z,4.90
2018-03-29T02:47:01.401Z,4.90
2018-03-29T02:49:28.933Z,5.00
2018-03-29T02:51:56.469Z,5.00
2018-03-29T02:54:24.001Z,5.10
2018-03-29T02:56:51.545Z,5.30
2018-03-29T02:59:19.066Z,5.40
2018-03-29T03:01:46.616Z,5.50
2018-03-29T03:04:14.143Z,5.60
2018-03-29T03:06:42.438Z,5.70
2018-03-29T03:09:09.989Z,5.70
2018-03-29T03:11:37.512Z,5.80
2018-03-29T03:14:05.054Z,5.80
2018-03-29T03:16:32.576Z,5.80
2018-03-29T03:19:00.109Z,5.80
2018-03-29T03:21:27.630Z,5.80
2018-03-29T03:23:55.185Z,5.80
2018-03-29T03:26:22.725Z,5.80
2018-03-29T03:28:50.266Z,5.80
2018-03-29T03:31:17.782Z,5.80
2018-03-29T03:33:46.121Z,5.80
2018-03-29T03:36:13.638Z,5.80
2018-03-29T03:38:41.173Z,5.80
2018-03-29T03:41:09.473Z,5.70
2018-03-29T03:43:37.045Z,5.70
2018-03-29T03:46:04.561Z,5.70
2018-03-29T03:48:32.856Z,5.60
2018-03-29T03:51:00.402Z,5.50
2018-03-29T03:53:27.934Z,5.50
2018-03-29T03:55:55.484Z,5.50
2018-03-29T03:58:23.001Z,5.50
2018-03-29T04:00:50.548Z,5.50
2018-03-29T04:03:18.063Z,5.50
2018-03-29T04:05:45.613Z,5.50
2018-03-29T04:08:13.129Z,5.50
2018-03-29T04:10:40.645Z,5.40
2018-03-29T04:13:08.189Z,5.40
2018-03-29T04:15:35.713Z,5.40
2018-03-29T04:18:03.266Z,5.40
2018-03-29T04:20:30.789Z,5.40
2018-03-29T04:22:58.346Z,5.40
2018-03-29T04:25:25.868Z,5.30
2018-03-29T04:27:53.680Z,5.30
2018-03-29T04:30:21.198Z,5.40
2018-03-29T04:32:48.744Z,5.30
2018-03-29T04:35:16.285Z,5.40
2018-03-29T04:37:43.832Z,5.30
2018-03-29T04:40:11.364Z,5.30
2018-03-29T04:42:38.872Z,5.30
2018-03-29T04:45:06.420Z,5.30
2018-03-29T04:47:33.968Z,5.30
2018-03-29T04:50:01.511Z,5.20
2018-03-29T04:52:29.065Z,5.30
2018-03-29T04:54:56.606Z,5.20
2018-03-29T04:57:24.958Z,5.20
2018-03-29T04:59:52.493Z,5.20
2018-03-29T05:02:20.010Z,5.10
2018-03-29T05:04:47.558Z,5.10
2018-03-29T05:07:15.089Z,5.10
2018-03-29T05:09:43.388Z,5.00
2018-03-29T05:12:10.925Z,5.10
2018-03-29T05:14:39.197Z,5.00
2018-03-29T05:17:07.503Z,5.00
2018-03-29T05:19:35.017Z,5.00
2018-03-29T05:22:02.537Z,5.00
2018-03-29T05:24:30.823Z,5.00
2018-03-29T05:26:58.359Z,5.00
2018-03-29T05:29:25.873Z,5.00
2018-03-29T05:31:53.410Z,5.00
2018-03-29T05:34:20.926Z,5.10
2018-03-29T05:36:48.446Z,5.00
2018-03-29T05:39:15.962Z,5.00
2018-03-29T05:41:43.493Z,5.00
2018-03-29T05:44:11.012Z,5.00
2018-03-29T05:46:38.575Z,5.10
2018-03-29T05:49:06.862Z,5.10
2018-03-29T05:51:35.161Z,5.10
2018-03-29T05:54:02.690Z,5.10
2018-03-29T05:56:30.213Z,5.10
2018-03-29T05:58:57.749Z,5.10
2018-03-29T06:01:25.265Z,5.10
2018-03-29T06:03:53.572Z,5.20
2018-03-29T06:06:21.076Z,5.10
2018-03-29T06:08:48.601Z,5.20
2018-03-29T06:11:16.108Z,5.20
2018-03-29T06:13:43.642Z,5.20
2018-03-29T06:16:11.157Z,5.20
2018-03-29T06:18:38.681Z,5.30
2018-03-29T06:21:06.195Z,5.30
2018-03-29T06:23:33.732Z,5.30
2018-03-29T06:26:01.233Z,5.30
2018-03-29T06:28:28.759Z,5.20
2018-03-29T06:30:56.269Z,5.30
2018-03-29T06:33:24.544Z,5.30
2018-03-29T06:35:52.927Z,5.30
2018-03-29T06:38:21.210Z,5.50
2018-03-29T06:40:48.736Z,5.50
2018-03-29T06:43:16.245Z,5.60
2018-03-29T06:45:43.777Z,5.50
2018-03-29T06:48:11.297Z,5.60
2018-03-29T06:50:38.825Z,5.60
2018-03-29T06:53:06.349Z,5.60
2018-03-29T06:55:33.885Z,5.60
2018-03-29T06:58:02.166Z,5.70
2018-03-29T07:00:29.695Z,5.60
2018-03-29T07:02:57.229Z,5.60
2018-03-29T07:05:24.730Z,5.60
2018-03-29T07:07:52.257Z,5.60
2018-03-29T07:10:19.769Z,5.70
2018-03-29T07:12:47.333Z,5.70
2018-03-29T07:15:14.844Z,5.70
2018-03-29T07:17:42.369Z,5.70
2018-03-29T07:20:09.887Z,5.70
2018-03-29T07:22:38.198Z,5.70
2018-03-29T07:25:05.717Z,5.70
2018-03-29T07:27:34.003Z,5.80
2018-03-29T07:30:01.583Z,5.80
2018-03-29T07:32:29.097Z,5.90
2018-03-29T07:34:57.393Z,5.90
2018-03-29T07:37:24.907Z,5.90
2018-03-29T07:39:52.444Z,6.00
2018-03-29T07:42:19.966Z,6.00
2018-03-29T07:44:47.493Z,6.10
2018-03-29T07:47:15.001Z,6.20
2018-03-29T07:49:42.541Z,6.40
2018-03-29T07:52:10.054Z,6.50
2018-03-29T07:54:37.606Z,6.60
2018-03-29T07:57:05.929Z,6.70
2018-03-29T07:59:33.442Z,6.60
2018-03-29T08:02:00.990Z,6.60
2018-03-29T08:04:28.505Z,6.60
2018-03-29T08:06:56.037Z,6.60
2018-03-29T08:09:24.321Z,6.70
2018-03-29T08:11:52.608Z,6.70
2018-03-29T08:14:20.110Z,6.70
2018-03-29T08:16:47.644Z,6.80
2018-03-29T08:19:15.160Z,6.70
2018-03-29T08:21:43.510Z,6.70
2018-03-29T08:24:10.988Z,6.70
2018-03-29T08:26:38.505Z,6.70
2018-03-29T08:29:06.040Z,6.70
2018-03-29T08:31:33.552Z,6.80
2018-03-29T08:34:01.863Z,7.00
2018-03-29T08:36:29.368Z,7.00
2018-03-29T08:38:56.894Z,7.20
2018-03-29T08:41:24.646Z,7.30
2018-03-29T08:43:52.194Z,7.50
2018-03-29T08:46:19.719Z,7.50
2018-03-29T08:48:47.259Z,7.50
2018-03-29T08:51:14.764Z,7.90
2018-03-29T08:53:42.320Z,8.10
2018-03-29T08:56:09.845Z,8.30
2018-03-29T08:58:37.392Z,8.50
2018-03-29T09:01:04.941Z,8.80
2018-03-29T09:03:32.457Z,9.10
2018-03-29T09:05:59.994Z,9.00
2018-03-29T09:08:27.510Z,8.80
2018-03-29T09:10:55.040Z,8.70
2018-03-29T09:13:22.558Z,8.40
2018-03-29T09:15:50.853Z,7.50
2018-03-29T09:18:18.382Z,7.50
2018-03-29T09:20:45.912Z,7.20
2018-03-29T09:23:13.437Z,6.90
2018-03-29T09:25:40.968Z,6.80
2018-03-29T09:28:09.251Z,7.60
2018-03-29T09:30:36.769Z,7.50
2018-03-29T09:33:04.305Z,8.30
2018-03-29T09:35:31.828Z,8.50
2018-03-29T09:37:59.354Z,8.60
2018-03-29T09:40:26.878Z,8.60
2018-03-29T09:42:54.403Z,8.60
2018-03-29T09:45:21.908Z,8.80
2018-03-29T09:47:49.492Z,8.90
2018-03-29T09:50:16.978Z,8.90
2018-03-29T09:52:44.536Z,8.70
2018-03-29T09:55:12.045Z,8.60
2018-03-29T09:57:39.576Z,8.40
2018-03-29T10:00:07.821Z,8.10
2018-03-29T10:02:35.339Z,8.20
2018-03-29T10:05:03.652Z,8.40
2018-03-29T10:07:34.311Z,8.50
2018-03-29T10:10:01.863Z,8.60
2018-03-29T10:12:30.054Z,8.60
2018-03-29T10:14:57.590Z,8.80
2018-03-29T10:17:25.094Z,9.20
2018-03-29T10:19:52.629Z,9.90
2018-03-29T10:22:20.154Z,10.20
2018-03-29T10:24:47.676Z,10.50
2018-03-29T10:27:15.950Z,10.20
2018-03-29T10:29:44.252Z,9.70
2018-03-29T10:32:11.769Z,9.70
2018-03-29T10:34:39.289Z,9.30
2018-03-29T10:37:07.389Z,8.80
2018-03-29T10:39:34.898Z,8.30
2018-03-29T10:42:02.416Z,8.20
2018-03-29T10:44:29.925Z,8.20
2018-03-29T10:46:57.461Z,8.20
2018-03-29T10:49:24.978Z,8.30
2018-03-29T10:51:52.505Z,8.30
2018-03-29T10:54:20.026Z,8.30
2018-03-29T10:56:47.542Z,8.30
2018-03-29T10:59:15.082Z,8.20
2018-03-29T11:01:42.588Z,8.40
2018-03-29T11:04:10.124Z,8.50
2018-03-29T11:06:38.005Z,8.70
2018-03-29T11:09:06.334Z,8.50
2018-03-29T11:11:33.854Z,8.50
2018-03-29T11:14:01.392Z,8.30
2018-03-29T11:16:29.713Z,8.60
2018-03-29T11:18:57.502Z,8.60
2018-03-29T11:21:25.045Z,9.00
2018-03-29T11:23:53.760Z,9.10
2018-03-29T11:26:21.329Z,9.30
2018-03-29T11:28:48.927Z,9.30
2018-03-29T11:31:16.467Z,9.40
2018-03-29T11:33:43.972Z,9.70
2018-03-29T11:36:11.566Z,9.80
2018-03-29T11:38:40.761Z,9.60
2018-03-29T11:41:09.077Z,9.80
2018-03-29T11:43:36.632Z,9.80
2018-03-29T11:46:04.145Z,9.70
2018-03-29T11:48:32.441Z,9.50
2018-03-29T11:51:00.721Z,9.40
2018-03-29T11:53:28.245Z,9.40
2018-03-29T11:55:56.558Z,9.10
2018-03-29T11:58:24.196Z,9.00
2018-03-29T12:00:56.153Z,9.00
2018-03-29T12:03:24.457Z,9.00
2018-03-29T12:05:51.965Z,9.00
2018-03-29T12:08:20.168Z,9.10
2018-03-29T12:10:48.472Z,9.20
2018-03-29T12:13:15.988Z,9.20
2018-03-29T12:15:44.285Z,9.50
2018-03-29T12:18:11.801Z,9.50
2018-03-29T12:20:39.341Z,9.50
2018-03-29T12:23:06.854Z,9.60
2018-03-29T12:25:34.413Z,9.50
2018-03-29T12:28:02.693Z,9.40
2018-03-29T12:30:30.241Z,9.30
2018-03-29T12:32:58.104Z,9.40
2018-03-29T12:35:25.637Z,9.40
2018-03-29T12:37:53.181Z,9.40
2018-03-29T12:40:20.718Z,9.40
2018-03-29T12:42:48.258Z,9.50
2018-03-29T12:45:15.771Z,9.50
2018-03-29T12:47:43.300Z,9.50
2018-03-29T12:50:10.817Z,9.50
2018-03-29T12:52:38.364Z,9.60
2018-03-29T12:55:17.732Z,9.80
2018-03-29T12:57:56.955Z,9.90
2018-03-29T13:00:24.476Z,9.80
2018-03-29T13:02:52.810Z,9.70
2018-03-29T13:05:20.330Z,9.70
2018-03-29T13:07:47.878Z,9.60
2018-03-29T13:10:16.157Z,9.60
2018-03-29T13:12:43.684Z,9.50
2018-03-29T13:15:11.204Z,9.30
2018-03-29T13:17:38.767Z,9.10
2018-03-29T13:20:06.293Z,9.00
2018-03-29T13:22:33.818Z,8.70
2018-03-29T13:25:01.336Z,8.50
2018-03-29T13:27:28.874Z,8.40
2018-03-29T13:29:56.384Z,8.20
2018-03-29T13:32:23.924Z,8.30
2018-03-29T13:34:51.468Z,8.50
2018-03-29T13:37:19.039Z,8.70
2018-03-29T13:39:46.598Z,8.60
2018-03-29T13:42:14.141Z,8.60
2018-03-29T13:44:41.661Z,8.80
2018-03-29T13:47:09.193Z,8.90
2018-03-29T13:49:36.720Z,8.90
2018-03-29T13:52:04.413Z,8.90
2018-03-29T13:54:32.060Z,8.80
2018-03-29T13:56:59.635Z,8.70
2018-03-29T13:59:27.981Z,8.70
2018-03-29T14:01:55.585Z,8.70
2018-03-29T14:04:23.158Z,8.90
2018-03-29T14:06:50.684Z,9.20
2018-03-29T14:09:18.238Z,9.40
2018-03-29T14:11:45.758Z,9.60
2018-03-29T14:14:13.297Z,9.70
2018-03-29T14:16:40.836Z,9.60
2018-03-29T14:19:08.435Z,9.40
2018-03-29T14:21:36.609Z,9.20
2018-03-29T14:24:04.132Z,9.00
2018-03-29T14:26:32.533Z,8.90
2018-03-29T14:29:00.053Z,8.90
2018-03-29T14:31:27.706Z,8.90
2018-03-29T14:33:55.232Z,8.90
2018-03-29T14:36:22.758Z,8.90
2018-03-29T14:38:50.361Z,9.00
2018-03-29T14:41:17.890Z,9.10
2018-03-29T14:43:45.437Z,9.30
2018-03-29T14:46:12.968Z,9.60
2018-03-29T14:48:41.105Z,9.70
2018-03-29T14:51:08.625Z,9.80
2018-03-29T14:53:36.245Z,9.70
2018-03-29T14:56:04.974Z,9.60
2018-03-29T14:58:32.572Z,9.60
2018-03-29T15:01:00.116Z,9.60
2018-03-29T15:03:27.653Z,9.50
2018-03-29T15:05:55.286Z,9.30
2018-03-29T15:08:22.816Z,9.30
2018-03-29T15:10:51.097Z,9.10
2018-03-29T15:13:19.509Z,9.10
2018-03-29T15:15:47.049Z,9.10
2018-03-29T15:18:14.672Z,9.00
2018-03-29T15:20:42.221Z,9.00
2018-03-29T15:23:09.765Z,9.00
2018-03-29T15:25:37.300Z,9.00
2018-03-29T15:28:04.832Z,8.90
2018-03-29T15:30:32.361Z,8.90
2018-03-29T15:32:59.901Z,8.90
2018-03-29T15:35:27.422Z,8.90
2018-03-29T15:37:54.974Z,8.90
2018-03-29T15:40:22.568Z,8.80
2018-03-29T15:42:50.109Z,8.80
2018-03-29T15:45:17.666Z,8.70
2018-03-29T15:47:45.309Z,8.70
2018-03-29T15:50:12.821Z,8.80
2018-03-29T15:52:41.265Z,8.80
2018-03-29T15:55:08.789Z,8.80
2018-03-29T15:57:36.334Z,8.70
2018-03-29T16:00:03.853Z,8.80
2018-03-29T16:02:31.456Z,8.90
2018-03-29T16:04:59.123Z,8.90
2018-03-29T16:07:26.720Z,8.80
2018-03-29T16:09:54.233Z,8.90
2018-03-29T16:12:22.520Z,8.90
2018-03-29T16:14:50.046Z,8.90
2018-03-29T16:17:17.583Z,8.90
2018-03-29T16:19:45.874Z,8.90
2018-03-29T16:22:14.933Z,9.00
2018-03-29T16:24:43.047Z,9.00
2018-03-29T16:27:11.329Z,9.00
2018-03-29T16:29:38.865Z,9.00
2018-03-29T16:32:06.560Z,9.00
2018-03-29T16:34:34.140Z,8.90
2018-03-29T16:37:02.085Z,8.80
2018-03-29T16:39:29.613Z,8.60
2018-03-29T16:41:57.707Z,8.50
2018-03-29T16:44:26.027Z,8.10
2018-03-29T16:46:53.803Z,8.10
2018-03-29T16:49:21.387Z,8.00
2018-03-29T16:51:48.909Z,8.00
2018-03-29T16:54:16.436Z,7.80
2018-03-29T16:56:43.954Z,7.70
2018-03-29T16:59:11.494Z,7.70
2018-03-29T17:01:39.016Z,7.70
2018-03-29T17:04:06.558Z,7.80
2018-03-29T17:06:34.090Z,7.70
2018-03-29T17:09:02.454Z,7.70
2018-03-29T17:11:29.981Z,7.70
2018-03-29T17:13:57.525Z,7.60
2018-03-29T17:16:25.046Z,7.60
2018-03-29T17:18:52.601Z,7.50
2018-03-29T17:21:20.905Z,7.30
2018-03-29T17:23:48.466Z,7.30
2018-03-29T17:26:16.009Z,7.20
2018-03-29T17:28:43.545Z,7.20
2018-03-29T17:31:11.086Z,7.10
2018-03-29T17:33:38.637Z,7.10
2018-03-29T17:36:06.191Z,7.00
2018-03-29T17:38:33.714Z,6.90
2018-03-29T17:41:01.240Z,6.90
2018-03-29T17:43:29.559Z,6.70
2018-03-29T17:45:57.108Z,6.70
2018-03-29T17:48:24.633Z,6.70
2018-03-29T17:50:52.201Z,6.60
2018-03-29T17:53:19.721Z,6.60
2018-03-29T17:55:47.262Z,6.50
2018-03-29T17:58:14.793Z,6.50
2018-03-29T18:00:42.329Z,6.50
2018-03-29T18:03:10.624Z,6.40
2018-03-29T18:05:38.164Z,6.40
2018-03-29T18:08:05.717Z,6.40
2018-03-29T18:10:33.253Z,6.20
2018-03-29T18:13:00.861Z,6.20
2018-03-29T18:15:28.366Z,6.20
2018-03-29T18:17:55.881Z,6.20
2018-03-29T18:20:23.420Z,6.20
2018-03-29T18:22:50.941Z,6.20
2018-03-29T18:25:18.484Z,6.20
2018-03-29T18:27:48.484Z,6.20
2018-03-29T18:30:16.027Z,6.20
2018-03-29T18:32:43.556Z,6.40
2018-03-29T18:35:11.086Z,6.40
2018-03-29T18:37:38.620Z,6.50
2018-03-29T18:40:06.149Z,6.60
2018-03-29T18:42:33.681Z,6.60
2018-03-29T18:45:01.262Z,6.70
2018-03-29T18:47:28.782Z,6.70
2018-03-29T18:49:56.329Z,6.80
2018-03-29T18:52:23.850Z,6.80
2018-03-29T18:54:51.394Z,6.80
2018-03-29T18:57:18.914Z,6.90
2018-03-29T18:59:47.316Z,7.00
2018-03-29T19:02:14.846Z,6.90
2018-03-29T19:04:43.152Z,7.00
2018-03-29T19:07:10.682Z,7.00
2018-03-29T19:09:38.989Z,7.00
2018-03-29T19:12:06.514Z,7.00
2018-03-29T19:14:34.841Z,7.00
2018-03-29T19:17:03.246Z,7.00
2018-03-29T19:19:30.790Z,6.90
2018-03-29T19:21:58.306Z,6.90
2018-03-29T19:24:25.829Z,6.80
2018-03-29T19:26:54.141Z,6.70
2018-03-29T19:29:21.661Z,6.60
2018-03-29T19:31:49.210Z,6.60
2018-03-29T19:34:16.741Z,6.60
2018-03-29T19:36:44.284Z,6.60
2018-03-29T19:39:11.824Z,6.60
2018-03-29T19:41:39.369Z,6.60
2018-03-29T19:44:06.887Z,6.60
2018-03-29T19:46:34.446Z,6.70
2018-03-29T19:49:01.970Z,6.70
2018-03-29T19:51:29.502Z,6.70
2018-03-29T19:53:57.016Z,6.70
2018-03-29T19:56:24.566Z,6.70
2018-03-29T19:58:52.090Z,6.60
2018-03-29T20:01:19.638Z,6.50
2018-03-29T20:03:47.169Z,6.40
2018-03-29T20:06:15.469Z,6.20
2018-03-29T20:08:42.993Z,6.10
2018-03-29T20:11:10.541Z,6.10
2018-03-29T20:13:38.068Z,6.00
2018-03-29T20:16:05.619Z,6.00
2018-03-29T20:18:33.142Z,6.10
2018-03-29T20:21:01.451Z,6.10
2018-03-29T20:23:28.984Z,6.10
2018-03-29T20:25:57.900Z,6.10
2018-03-29T20:28:25.436Z,6.10
2018-03-29T20:30:52.987Z,6.10
2018-03-29T20:33:20.521Z,6.10
2018-03-29T20:35:48.091Z,6.20
2018-03-29T20:38:16.410Z,6.00
2018-03-29T20:40:43.964Z,6.00
2018-03-29T20:43:11.485Z,5.90
2018-03-29T20:45:39.038Z,5.80
2018-03-29T20:48:06.586Z,5.80
2018-03-29T20:50:34.110Z,5.80
2018-03-29T20:53:01.652Z,5.70
2018-03-29T20:55:29.459Z,5.70
2018-03-29T20:57:57.009Z,5.60
2018-03-29T21:00:24.533Z,5.60
2018-03-29T21:02:52.077Z,5.50
2018-03-29T21:05:19.609Z,5.60
2018-03-29T21:07:47.912Z,5.60
2018-03-29T21:10:15.437Z,5.50
2018-03-29T21:12:42.998Z,5.50
2018-03-29T21:15:11.281Z,5.40
2018-03-29T21:17:38.833Z,5.30
2018-03-29T21:20:07.145Z,5.10
2018-03-29T21:22:34.681Z,5.10
2018-03-29T21:25:02.225Z,4.90
2018-03-29T21:27:29.765Z,4.90
2018-03-29T21:29:57.294Z,4.80
2018-03-29T21:32:24.834Z,4.70
2018-03-29T21:34:52.404Z,4.70
2018-03-29T21:37:19.938Z,4.80
2018-03-29T21:39:48.224Z,4.80
2018-03-29T21:42:15.776Z,4.70
2018-03-29T21:44:43.297Z,4.70
2018-03-29T21:47:11.617Z,4.70
2018-03-29T21:49:39.153Z,4.60
2018-03-29T21:52:06.697Z,4.70
2018-03-29T21:54:34.249Z,4.70
2018-03-29T21:57:01.794Z,4.70
2018-03-29T21:59:30.114Z,4.60
2018-03-29T22:01:57.642Z,4.50
2018-03-29T22:04:25.254Z,4.50
2018-03-29T22:06:52.765Z,4.40
2018-03-29T22:09:20.321Z,4.30
2018-03-29T22:11:49.603Z,4.10
2018-03-29T22:14:17.939Z,4.10
2018-03-29T22:16:45.462Z,4.10
2018-03-29T22:19:13.008Z,4.10
2018-03-29T22:21:40.532Z,4.10
2018-03-29T22:24:08.077Z,4.20
2018-03-29T22:26:35.597Z,4.20
2018-03-29T22:29:03.145Z,4.20
2018-03-29T22:31:30.686Z,4.20
2018-03-29T22:33:59.001Z,4.20
2018-03-29T22:36:26.532Z,4.20
2018-03-29T22:38:54.082Z,4.20
2018-03-29T22:41:22.380Z,4.30
2018-03-29T22:43:49.917Z,4.20
2018-03-29T22:46:18.201Z,4.20
2018-03-29T22:48:45.729Z,4.10
2018-03-29T22:51:13.250Z,4.10
2018-03-29T22:53:40.785Z,4.00
2018-03-29T22:56:08.697Z,3.90
2018-03-29T22:58:36.234Z,3.80
2018-03-29T23:01:03.770Z,3.60
2018-03-29T23:03:31.318Z,3.50
2018-03-29T23:05:58.847Z,3.20
2018-03-29T23:08:27.181Z,3.00
2018-03-29T23:10:54.713Z,3.00
2018-03-29T23:13:22.261Z,2.80
2018-03-29T23:15:49.793Z,2.80
2018-03-29T23:18:18.097Z,2.60
2018-03-29T23:20:45.636Z,2.60
2018-03-29T23:23:13.190Z,2.50
2018-03-29T23:25:41.495Z,2.30
2018-03-29T23:28:09.048Z,2.30
2018-03-29T23:30:36.570Z,2.20
2018-03-29T23:33:04.135Z,2.10
2018-03-29T23:35:32.425Z,1.90
2018-03-29T23:38:00.029Z,1.90
2018-03-29T23:40:27.563Z,1.90
2018-03-29T23:42:55.101Z,1.80
2018-03-29T23:45:22.639Z,1.80
2018-03-29T23:47:50.173Z,1.80
2018-03-29T23:50:17.714Z,1.70
2018-03-29T23:52:45.244Z,1.50
2018-03-29T23:55:12.781Z,1.40
2018-03-29T23:57:40.301Z,1.30
